sensor_id;sensor_type;location;lat;lon;timestamp;temperature;humidity
26803;DHT22;14378;51.796;5.808;2023-03-09T00:06:04;3.30;99.90
26803;DHT22;14378;51.796;5.808;2023-03-09T00:08:05;3.20;99.90
26803;DHT22;14378;51.796;5.808;2023-03-09T00:10:06;3.20;99.90
26803;DHT22;14378;51.796;5.808;2023-03-09T00:12:07;3.10;99.90
26803;DHT22;14378;51.796;5.808;2023-03-09T00:14:08;3.10;99.90
26803;DHT22;14378;51.796;5.808;2023-03-09T00:16:18;3.10;99.90
26803;DHT22;14378;51.796;5.808;2023-03-09T00:18:21;3.10;99.90
26803;DHT22;14378;51.796;5.808;2023-03-09T00:20:22;3.10;99.90
26803;DHT22;14378;51.796;5.808;2023-03-09T00:22:24;3.10;99.90
26803;DHT22;14378;51.796;5.808;2023-03-09T00:24:27;3.10;99.90
26803;DHT22;14378;51.796;5.808;2023-03-09T00:26:28;3.00;99.90
26803;DHT22;14378;51.796;5.808;2023-03-09T00:28:29;3.10;99.90
26803;DHT22;14378;51.796;5.808;2023-03-09T00:30:30;3.10;99.90
26803;DHT22;14378;51.796;5.808;2023-03-09T00:32:31;3.00;99.90
26803;DHT22;14378;51.796;5.808;2023-03-09T00:34:32;3.10;99.90
26803;DHT22;14378;51.796;5.808;2023-03-09T00:36:33;3.10;99.90
26803;DHT22;14378;51.796;5.808;2023-03-09T00:38:33;3.10;99.90
26803;DHT22;14378;51.796;5.808;2023-03-09T00:40:36;3.10;99.90
26803;DHT22;14378;51.796;5.808;2023-03-09T00:42:38;3.10;99.90
26803;DHT22;14378;51.796;5.808;2023-03-09T00:44:41;3.10;99.90
26803;DHT22;14378;51.796;5.808;2023-03-09T00:46:42;3.10;99.90
26803;DHT22;14378;51.796;5.808;2023-03-09T00:48:43;3.10;99.90
26803;DHT22;14378;51.796;5.808;2023-03-09T00:50:45;3.10;99.90
26803;DHT22;14378;51.796;5.808;2023-03-09T00:52:45;3.10;99.90
26803;DHT22;14378;51.796;5.808;2023-03-09T00:54:46;3.10;99.90
26803;DHT22;14378;51.796;5.808;2023-03-09T00:56:47;3.10;99.90
26803;DHT22;14378;51.796;5.808;2023-03-09T00:58:48;3.10;99.90
26803;DHT22;14378;51.796;5.808;2023-03-09T01:00:49;3.10;99.90
26803;DHT22;14378;51.796;5.808;2023-03-09T01:02:51;3.10;99.90
26803;DHT22;14378;51.796;5.808;2023-03-09T01:04:53;3.10;99.90
26803;DHT22;14378;51.796;5.808;2023-03-09T01:06:55;3.10;99.90
26803;DHT22;14378;51.796;5.808;2023-03-09T01:08:56;3.10;99.90
26803;DHT22;14378;51.796;5.808;2023-03-09T01:10:57;3.10;99.90
26803;DHT22;14378;51.796;5.808;2023-03-09T01:12:58;3.10;99.90
26803;DHT22;14378;51.796;5.808;2023-03-09T01:14:59;3.00;99.90
26803;DHT22;14378;51.796;5.808;2023-03-09T01:17:00;3.00;99.90
26803;DHT22;14378;51.796;5.808;2023-03-09T01:19:02;3.00;99.90
26803;DHT22;14378;51.796;5.808;2023-03-09T01:21:03;3.00;99.90
26803;DHT22;14378;51.796;5.808;2023-03-09T01:23:05;3.00;99.90
26803;DHT22;14378;51.796;5.808;2023-03-09T01:25:08;3.10;99.90
26803;DHT22;14378;51.796;5.808;2023-03-09T01:27:09;3.10;99.90
26803;DHT22;14378;51.796;5.808;2023-03-09T01:29:12;3.10;99.90
26803;DHT22;14378;51.796;5.808;2023-03-09T01:31:15;3.00;99.90
26803;DHT22;14378;51.796;5.808;2023-03-09T01:33:16;3.00;99.90
26803;DHT22;14378;51.796;5.808;2023-03-09T01:35:17;3.00;99.90
26803;DHT22;14378;51.796;5.808;2023-03-09T01:37:19;3.10;99.90
26803;DHT22;14378;51.796;5.808;2023-03-09T01:39:19;3.10;99.90
26803;DHT22;14378;51.796;5.808;2023-03-09T01:41:26;3.10;99.90
26803;DHT22;14378;51.796;5.808;2023-03-09T01:43:29;3.10;99.90
26803;DHT22;14378;51.796;5.808;2023-03-09T01:47:35;3.10;99.90
26803;DHT22;14378;51.796;5.808;2023-03-09T01:49:45;3.10;99.90
26803;DHT22;14378;51.796;5.808;2023-03-09T01:56:44;3.10;99.90
26803;DHT22;14378;51.796;5.808;2023-03-09T01:58:49;3.10;99.90
26803;DHT22;14378;51.796;5.808;2023-03-09T02:00:54;3.00;99.90
26803;DHT22;14378;51.796;5.808;2023-03-09T02:03:11;3.00;99.90
26803;DHT22;14378;51.796;5.808;2023-03-09T02:05:22;3.00;99.90
26803;DHT22;14378;51.796;5.808;2023-03-09T02:07:26;3.10;99.90
26803;DHT22;14378;51.796;5.808;2023-03-09T02:09:35;3.10;99.90
26803;DHT22;14378;51.796;5.808;2023-03-09T02:11:40;3.10;99.90
26803;DHT22;14378;51.796;5.808;2023-03-09T02:13:45;3.10;99.90
26803;DHT22;14378;51.796;5.808;2023-03-09T02:15:48;3.10;99.90
26803;DHT22;14378;51.796;5.808;2023-03-09T02:17:51;3.10;99.90
26803;DHT22;14378;51.796;5.808;2023-03-09T02:20:19;3.10;99.90
26803;DHT22;14378;51.796;5.808;2023-03-09T02:22:23;3.10;99.90
26803;DHT22;14378;51.796;5.808;2023-03-09T02:28:49;3.10;99.90
26803;DHT22;14378;51.796;5.808;2023-03-09T02:30:52;3.10;99.90
26803;DHT22;14378;51.796;5.808;2023-03-09T02:33:04;3.10;99.90
26803;DHT22;14378;51.796;5.808;2023-03-09T02:35:07;3.10;99.90
26803;DHT22;14378;51.796;5.808;2023-03-09T02:37:47;3.10;99.90
26803;DHT22;14378;51.796;5.808;2023-03-09T02:39:56;3.10;99.90
26803;DHT22;14378;51.796;5.808;2023-03-09T02:41:57;3.20;99.90
26803;DHT22;14378;51.796;5.808;2023-03-09T02:44:01;3.20;99.90
26803;DHT22;14378;51.796;5.808;2023-03-09T02:46:05;3.30;99.90
26803;DHT22;14378;51.796;5.808;2023-03-09T02:48:10;3.30;99.90
26803;DHT22;14378;51.796;5.808;2023-03-09T02:50:10;3.30;99.90
26803;DHT22;14378;51.796;5.808;2023-03-09T02:52:12;3.30;99.90
26803;DHT22;14378;51.796;5.808;2023-03-09T02:54:13;3.30;99.90
26803;DHT22;14378;51.796;5.808;2023-03-09T02:56:14;3.30;99.90
26803;DHT22;14378;51.796;5.808;2023-03-09T02:58:15;3.30;99.90
26803;DHT22;14378;51.796;5.808;2023-03-09T03:00:16;3.30;99.90
26803;DHT22;14378;51.796;5.808;2023-03-09T03:02:18;3.30;99.90
26803;DHT22;14378;51.796;5.808;2023-03-09T03:04:19;3.20;99.90
26803;DHT22;14378;51.796;5.808;2023-03-09T03:06:24;3.30;99.90
26803;DHT22;14378;51.796;5.808;2023-03-09T03:08:26;3.30;99.90
26803;DHT22;14378;51.796;5.808;2023-03-09T03:10:27;3.30;99.90
26803;DHT22;14378;51.796;5.808;2023-03-09T03:12:28;3.30;99.90
26803;DHT22;14378;51.796;5.808;2023-03-09T03:14:29;3.40;99.90
26803;DHT22;14378;51.796;5.808;2023-03-09T03:16:30;3.40;99.90
26803;DHT22;14378;51.796;5.808;2023-03-09T03:18:31;3.40;99.90
26803;DHT22;14378;51.796;5.808;2023-03-09T03:20:32;3.40;99.90
26803;DHT22;14378;51.796;5.808;2023-03-09T03:22:34;3.40;99.90
26803;DHT22;14378;51.796;5.808;2023-03-09T03:24:38;3.30;99.90
26803;DHT22;14378;51.796;5.808;2023-03-09T03:26:41;3.30;99.90
26803;DHT22;14378;51.796;5.808;2023-03-09T03:28:46;3.30;99.90
26803;DHT22;14378;51.796;5.808;2023-03-09T03:30:55;3.30;99.90
26803;DHT22;14378;51.796;5.808;2023-03-09T03:32:59;3.30;99.90
26803;DHT22;14378;51.796;5.808;2023-03-09T03:35:04;3.30;99.90
26803;DHT22;14378;51.796;5.808;2023-03-09T03:37:08;3.40;99.90
26803;DHT22;14378;51.796;5.808;2023-03-09T03:39:10;3.30;99.90
26803;DHT22;14378;51.796;5.808;2023-03-09T03:41:11;3.30;99.90
26803;DHT22;14378;51.796;5.808;2023-03-09T03:43:14;3.30;99.90
26803;DHT22;14378;51.796;5.808;2023-03-09T03:45:19;3.30;99.90
26803;DHT22;14378;51.796;5.808;2023-03-09T03:47:23;3.30;99.90
26803;DHT22;14378;51.796;5.808;2023-03-09T03:49:24;3.30;99.90
26803;DHT22;14378;51.796;5.808;2023-03-09T03:51:26;3.30;99.90
26803;DHT22;14378;51.796;5.808;2023-03-09T03:53:29;3.30;99.90
26803;DHT22;14378;51.796;5.808;2023-03-09T03:55:31;3.30;99.90
26803;DHT22;14378;51.796;5.808;2023-03-09T03:57:32;3.20;99.90
26803;DHT22;14378;51.796;5.808;2023-03-09T03:59:33;3.30;99.90
26803;DHT22;14378;51.796;5.808;2023-03-09T04:01:34;3.30;99.90
26803;DHT22;14378;51.796;5.808;2023-03-09T04:03:39;3.30;99.90
26803;DHT22;14378;51.796;5.808;2023-03-09T04:05:40;3.30;99.90
26803;DHT22;14378;51.796;5.808;2023-03-09T04:07:42;3.30;99.90
26803;DHT22;14378;51.796;5.808;2023-03-09T04:09:44;3.30;99.90
26803;DHT22;14378;51.796;5.808;2023-03-09T04:11:46;3.30;99.90
26803;DHT22;14378;51.796;5.808;2023-03-09T04:13:49;3.30;99.90
26803;DHT22;14378;51.796;5.808;2023-03-09T04:15:51;3.30;99.90
26803;DHT22;14378;51.796;5.808;2023-03-09T04:17:52;3.30;99.90
26803;DHT22;14378;51.796;5.808;2023-03-09T04:19:55;3.40;99.90
26803;DHT22;14378;51.796;5.808;2023-03-09T04:21:56;3.40;99.90
26803;DHT22;14378;51.796;5.808;2023-03-09T04:23:58;3.40;99.90
26803;DHT22;14378;51.796;5.808;2023-03-09T04:26:01;3.40;99.90
26803;DHT22;14378;51.796;5.808;2023-03-09T04:28:12;3.40;99.90
26803;DHT22;14378;51.796;5.808;2023-03-09T04:30:19;3.40;99.90
26803;DHT22;14378;51.796;5.808;2023-03-09T04:32:22;3.40;99.90
26803;DHT22;14378;51.796;5.808;2023-03-09T04:34:28;3.40;99.90
26803;DHT22;14378;51.796;5.808;2023-03-09T04:36:29;3.40;99.90
26803;DHT22;14378;51.796;5.808;2023-03-09T04:38:32;3.40;99.90
26803;DHT22;14378;51.796;5.808;2023-03-09T04:40:33;3.40;99.90
26803;DHT22;14378;51.796;5.808;2023-03-09T04:42:34;3.40;99.90
26803;DHT22;14378;51.796;5.808;2023-03-09T04:44:36;3.40;99.90
26803;DHT22;14378;51.796;5.808;2023-03-09T04:46:38;3.40;99.90
26803;DHT22;14378;51.796;5.808;2023-03-09T04:48:42;3.40;99.90
26803;DHT22;14378;51.796;5.808;2023-03-09T04:50:44;3.40;99.90
26803;DHT22;14378;51.796;5.808;2023-03-09T04:52:45;3.40;99.90
26803;DHT22;14378;51.796;5.808;2023-03-09T04:54:47;3.40;99.90
26803;DHT22;14378;51.796;5.808;2023-03-09T04:56:49;3.40;99.90
26803;DHT22;14378;51.796;5.808;2023-03-09T04:58:55;3.40;99.90
26803;DHT22;14378;51.796;5.808;2023-03-09T05:00:58;3.40;99.90
26803;DHT22;14378;51.796;5.808;2023-03-09T05:03:03;3.50;99.90
26803;DHT22;14378;51.796;5.808;2023-03-09T05:05:06;3.50;99.90
26803;DHT22;14378;51.796;5.808;2023-03-09T05:07:09;3.50;99.90
26803;DHT22;14378;51.796;5.808;2023-03-09T05:09:11;3.50;99.90
26803;DHT22;14378;51.796;5.808;2023-03-09T05:11:13;3.50;99.90
26803;DHT22;14378;51.796;5.808;2023-03-09T05:13:15;3.50;99.90
26803;DHT22;14378;51.796;5.808;2023-03-09T05:15:17;3.50;99.90
26803;DHT22;14378;51.796;5.808;2023-03-09T05:17:17;3.50;99.90
26803;DHT22;14378;51.796;5.808;2023-03-09T05:19:19;3.50;99.90
26803;DHT22;14378;51.796;5.808;2023-03-09T05:21:23;3.40;99.90
26803;DHT22;14378;51.796;5.808;2023-03-09T05:23:26;3.40;99.90
26803;DHT22;14378;51.796;5.808;2023-03-09T05:25:27;3.40;99.90
26803;DHT22;14378;51.796;5.808;2023-03-09T05:27:29;3.40;99.90
26803;DHT22;14378;51.796;5.808;2023-03-09T05:29:30;3.40;99.90
26803;DHT22;14378;51.796;5.808;2023-03-09T05:31:31;3.40;99.90
26803;DHT22;14378;51.796;5.808;2023-03-09T05:33:33;3.50;99.90
26803;DHT22;14378;51.796;5.808;2023-03-09T05:35:34;3.40;99.90
26803;DHT22;14378;51.796;5.808;2023-03-09T05:37:37;3.40;99.90
26803;DHT22;14378;51.796;5.808;2023-03-09T05:39:47;3.40;99.90
26803;DHT22;14378;51.796;5.808;2023-03-09T05:41:49;3.40;99.90
26803;DHT22;14378;51.796;5.808;2023-03-09T05:44:02;3.40;99.90
26803;DHT22;14378;51.796;5.808;2023-03-09T05:46:04;3.40;99.90
26803;DHT22;14378;51.796;5.808;2023-03-09T05:48:07;3.40;99.90
26803;DHT22;14378;51.796;5.808;2023-03-09T05:50:08;3.40;99.90
26803;DHT22;14378;51.796;5.808;2023-03-09T05:52:10;3.40;99.90
26803;DHT22;14378;51.796;5.808;2023-03-09T05:54:12;3.40;99.90
26803;DHT22;14378;51.796;5.808;2023-03-09T05:56:15;3.40;99.90
26803;DHT22;14378;51.796;5.808;2023-03-09T05:58:17;3.30;99.90
26803;DHT22;14378;51.796;5.808;2023-03-09T06:00:19;3.30;99.90
26803;DHT22;14378;51.796;5.808;2023-03-09T06:02:29;3.30;99.90
26803;DHT22;14378;51.796;5.808;2023-03-09T06:04:29;3.30;99.90
26803;DHT22;14378;51.796;5.808;2023-03-09T06:06:35;3.40;99.90
26803;DHT22;14378;51.796;5.808;2023-03-09T06:08:36;3.40;99.90
26803;DHT22;14378;51.796;5.808;2023-03-09T06:10:43;3.40;99.90
26803;DHT22;14378;51.796;5.808;2023-03-09T06:12:46;3.40;99.90
26803;DHT22;14378;51.796;5.808;2023-03-09T06:14:49;3.40;99.90
26803;DHT22;14378;51.796;5.808;2023-03-09T06:16:54;3.40;99.90
26803;DHT22;14378;51.796;5.808;2023-03-09T06:18:55;3.40;99.90
26803;DHT22;14378;51.796;5.808;2023-03-09T06:21:02;3.40;99.90
26803;DHT22;14378;51.796;5.808;2023-03-09T06:23:03;3.40;99.90
26803;DHT22;14378;51.796;5.808;2023-03-09T06:25:04;3.40;99.90
26803;DHT22;14378;51.796;5.808;2023-03-09T06:27:06;3.40;99.90
26803;DHT22;14378;51.796;5.808;2023-03-09T06:29:09;3.40;99.90
26803;DHT22;14378;51.796;5.808;2023-03-09T06:31:15;3.50;99.90
26803;DHT22;14378;51.796;5.808;2023-03-09T06:33:24;3.50;99.90
26803;DHT22;14378;51.796;5.808;2023-03-09T06:35:33;3.50;99.90
26803;DHT22;14378;51.796;5.808;2023-03-09T06:37:35;3.50;99.90
26803;DHT22;14378;51.796;5.808;2023-03-09T06:39:36;3.50;99.90
26803;DHT22;14378;51.796;5.808;2023-03-09T06:41:38;3.60;99.90
26803;DHT22;14378;51.796;5.808;2023-03-09T06:43:47;3.60;99.90
26803;DHT22;14378;51.796;5.808;2023-03-09T06:45:48;3.60;99.90
26803;DHT22;14378;51.796;5.808;2023-03-09T06:47:53;3.60;99.90
26803;DHT22;14378;51.796;5.808;2023-03-09T06:49:55;3.60;99.90
26803;DHT22;14378;51.796;5.808;2023-03-09T06:51:57;3.60;99.90
26803;DHT22;14378;51.796;5.808;2023-03-09T06:54:00;3.60;99.90
26803;DHT22;14378;51.796;5.808;2023-03-09T06:56:06;3.60;99.90
26803;DHT22;14378;51.796;5.808;2023-03-09T06:58:10;3.70;99.90
26803;DHT22;14378;51.796;5.808;2023-03-09T07:00:12;3.70;99.90
26803;DHT22;14378;51.796;5.808;2023-03-09T07:02:15;3.70;99.90
26803;DHT22;14378;51.796;5.808;2023-03-09T07:04:16;3.70;99.90
26803;DHT22;14378;51.796;5.808;2023-03-09T07:06:18;3.70;99.90
26803;DHT22;14378;51.796;5.808;2023-03-09T07:08:19;3.60;99.90
26803;DHT22;14378;51.796;5.808;2023-03-09T07:10:22;3.70;99.90
26803;DHT22;14378;51.796;5.808;2023-03-09T07:12:23;3.60;99.90
26803;DHT22;14378;51.796;5.808;2023-03-09T07:14:25;3.60;99.90
26803;DHT22;14378;51.796;5.808;2023-03-09T07:16:26;3.60;99.90
26803;DHT22;14378;51.796;5.808;2023-03-09T07:18:28;3.60;99.90
26803;DHT22;14378;51.796;5.808;2023-03-09T07:20:30;3.60;99.90
26803;DHT22;14378;51.796;5.808;2023-03-09T07:22:32;3.60;99.90
26803;DHT22;14378;51.796;5.808;2023-03-09T07:24:37;3.70;99.90
26803;DHT22;14378;51.796;5.808;2023-03-09T07:26:38;3.60;99.90
26803;DHT22;14378;51.796;5.808;2023-03-09T07:28:39;3.70;99.90
26803;DHT22;14378;51.796;5.808;2023-03-09T07:30:40;3.70;99.90
26803;DHT22;14378;51.796;5.808;2023-03-09T07:32:41;3.70;99.90
26803;DHT22;14378;51.796;5.808;2023-03-09T07:34:42;3.70;99.90
26803;DHT22;14378;51.796;5.808;2023-03-09T07:36:43;3.70;99.90
26803;DHT22;14378;51.796;5.808;2023-03-09T07:38:44;3.70;99.90
26803;DHT22;14378;51.796;5.808;2023-03-09T07:40:47;3.80;99.90
26803;DHT22;14378;51.796;5.808;2023-03-09T07:42:49;3.80;99.90
26803;DHT22;14378;51.796;5.808;2023-03-09T07:45:21;3.80;99.90
26803;DHT22;14378;51.796;5.808;2023-03-09T07:47:23;3.80;99.90
26803;DHT22;14378;51.796;5.808;2023-03-09T07:49:24;3.80;99.90
26803;DHT22;14378;51.796;5.808;2023-03-09T07:51:24;3.80;99.90
26803;DHT22;14378;51.796;5.808;2023-03-09T07:53:25;3.80;99.90
26803;DHT22;14378;51.796;5.808;2023-03-09T07:55:26;3.80;99.90
26803;DHT22;14378;51.796;5.808;2023-03-09T07:57:33;3.80;99.90
26803;DHT22;14378;51.796;5.808;2023-03-09T07:59:34;3.90;99.90
26803;DHT22;14378;51.796;5.808;2023-03-09T08:01:35;3.90;99.90
26803;DHT22;14378;51.796;5.808;2023-03-09T08:03:36;3.90;99.90
26803;DHT22;14378;51.796;5.808;2023-03-09T08:05:39;3.90;99.90
26803;DHT22;14378;51.796;5.808;2023-03-09T08:07:40;3.90;99.90
26803;DHT22;14378;51.796;5.808;2023-03-09T08:09:47;3.90;99.90
26803;DHT22;14378;51.796;5.808;2023-03-09T08:11:48;3.90;99.90
26803;DHT22;14378;51.796;5.808;2023-03-09T08:13:49;3.90;99.90
26803;DHT22;14378;51.796;5.808;2023-03-09T08:15:51;3.90;99.90
26803;DHT22;14378;51.796;5.808;2023-03-09T08:17:53;4.00;99.90
26803;DHT22;14378;51.796;5.808;2023-03-09T08:19:53;4.00;99.90
26803;DHT22;14378;51.796;5.808;2023-03-09T08:21:55;4.00;99.90
26803;DHT22;14378;51.796;5.808;2023-03-09T08:23:58;4.10;99.90
26803;DHT22;14378;51.796;5.808;2023-03-09T08:25:59;4.10;99.90
26803;DHT22;14378;51.796;5.808;2023-03-09T08:28:00;4.10;99.90
26803;DHT22;14378;51.796;5.808;2023-03-09T08:30:01;4.20;99.90
26803;DHT22;14378;51.796;5.808;2023-03-09T08:32:05;4.10;99.90
26803;DHT22;14378;51.796;5.808;2023-03-09T08:34:06;4.20;99.90
26803;DHT22;14378;51.796;5.808;2023-03-09T08:36:15;4.20;99.90
26803;DHT22;14378;51.796;5.808;2023-03-09T08:38:16;4.20;99.90
26803;DHT22;14378;51.796;5.808;2023-03-09T08:40:17;4.20;99.90
26803;DHT22;14378;51.796;5.808;2023-03-09T08:42:19;4.30;99.90
26803;DHT22;14378;51.796;5.808;2023-03-09T08:44:20;4.30;99.90
26803;DHT22;14378;51.796;5.808;2023-03-09T08:46:21;4.40;99.90
26803;DHT22;14378;51.796;5.808;2023-03-09T08:48:22;4.40;99.90
26803;DHT22;14378;51.796;5.808;2023-03-09T08:50:23;4.40;99.90
26803;DHT22;14378;51.796;5.808;2023-03-09T08:52:24;4.40;99.90
26803;DHT22;14378;51.796;5.808;2023-03-09T08:54:25;4.50;99.90
26803;DHT22;14378;51.796;5.808;2023-03-09T08:56:26;4.50;99.90
26803;DHT22;14378;51.796;5.808;2023-03-09T08:58:27;4.60;99.90
26803;DHT22;14378;51.796;5.808;2023-03-09T09:00:28;4.70;99.90
26803;DHT22;14378;51.796;5.808;2023-03-09T09:02:29;4.70;99.90
26803;DHT22;14378;51.796;5.808;2023-03-09T09:04:30;4.80;99.90
26803;DHT22;14378;51.796;5.808;2023-03-09T09:06:32;4.80;99.90
26803;DHT22;14378;51.796;5.808;2023-03-09T09:08:33;4.80;99.90
26803;DHT22;14378;51.796;5.808;2023-03-09T09:10:34;4.90;99.90
26803;DHT22;14378;51.796;5.808;2023-03-09T09:12:34;4.90;99.90
26803;DHT22;14378;51.796;5.808;2023-03-09T09:14:38;4.90;99.90
26803;DHT22;14378;51.796;5.808;2023-03-09T09:16:39;5.00;99.90
26803;DHT22;14378;51.796;5.808;2023-03-09T09:18:41;5.10;99.90
26803;DHT22;14378;51.796;5.808;2023-03-09T09:20:42;5.00;99.90
26803;DHT22;14378;51.796;5.808;2023-03-09T09:22:43;5.10;99.90
26803;DHT22;14378;51.796;5.808;2023-03-09T09:24:44;5.10;99.90
26803;DHT22;14378;51.796;5.808;2023-03-09T09:26:45;5.20;99.90
26803;DHT22;14378;51.796;5.808;2023-03-09T09:28:46;5.20;99.90
26803;DHT22;14378;51.796;5.808;2023-03-09T09:30:58;5.20;99.90
26803;DHT22;14378;51.796;5.808;2023-03-09T09:33:00;5.20;99.90
26803;DHT22;14378;51.796;5.808;2023-03-09T09:35:01;5.20;99.90
26803;DHT22;14378;51.796;5.808;2023-03-09T09:37:04;5.20;99.90
26803;DHT22;14378;51.796;5.808;2023-03-09T09:39:06;5.20;99.90
26803;DHT22;14378;51.796;5.808;2023-03-09T09:41:16;5.20;99.90
26803;DHT22;14378;51.796;5.808;2023-03-09T09:43:18;5.30;99.90
26803;DHT22;14378;51.796;5.808;2023-03-09T09:45:31;5.30;99.90
26803;DHT22;14378;51.796;5.808;2023-03-09T09:47:33;5.40;99.90
26803;DHT22;14378;51.796;5.808;2023-03-09T09:49:42;5.40;99.90
26803;DHT22;14378;51.796;5.808;2023-03-09T09:54:10;5.30;99.90
26803;DHT22;14378;51.796;5.808;2023-03-09T09:56:16;5.40;99.90
26803;DHT22;14378;51.796;5.808;2023-03-09T10:01:39;5.40;99.90
26803;DHT22;14378;51.796;5.808;2023-03-09T10:03:44;5.40;99.90
26803;DHT22;14378;51.796;5.808;2023-03-09T10:10:44;5.60;99.90
26803;DHT22;14378;51.796;5.808;2023-03-09T10:12:45;5.60;99.90
26803;DHT22;14378;51.796;5.808;2023-03-09T10:15:33;5.60;99.90
26803;DHT22;14378;51.796;5.808;2023-03-09T10:17:44;5.70;99.90
26803;DHT22;14378;51.796;5.808;2023-03-09T10:19:48;5.70;99.90
26803;DHT22;14378;51.796;5.808;2023-03-09T10:24:20;5.70;99.90
26803;DHT22;14378;51.796;5.808;2023-03-09T10:26:45;5.70;99.90
26803;DHT22;14378;51.796;5.808;2023-03-09T10:28:48;5.70;99.90
26803;DHT22;14378;51.796;5.808;2023-03-09T10:31:01;5.70;99.90
26803;DHT22;14378;51.796;5.808;2023-03-09T10:33:36;5.70;99.90
26803;DHT22;14378;51.796;5.808;2023-03-09T10:35:56;5.80;99.90
26803;DHT22;14378;51.796;5.808;2023-03-09T10:37:59;5.80;99.90
26803;DHT22;14378;51.796;5.808;2023-03-09T10:40:02;5.90;99.90
26803;DHT22;14378;51.796;5.808;2023-03-09T10:42:21;5.90;99.90
26803;DHT22;14378;51.796;5.808;2023-03-09T10:44:23;6.00;99.90
26803;DHT22;14378;51.796;5.808;2023-03-09T10:46:25;6.10;99.90
26803;DHT22;14378;51.796;5.808;2023-03-09T10:48:27;6.10;99.90
26803;DHT22;14378;51.796;5.808;2023-03-09T10:52:32;6.10;99.90
26803;DHT22;14378;51.796;5.808;2023-03-09T10:56:43;6.20;99.90
26803;DHT22;14378;51.796;5.808;2023-03-09T10:58:44;6.20;99.90
26803;DHT22;14378;51.796;5.808;2023-03-09T11:00:56;6.30;99.90
26803;DHT22;14378;51.796;5.808;2023-03-09T11:02:58;6.40;99.90
26803;DHT22;14378;51.796;5.808;2023-03-09T11:05:22;6.40;99.90
26803;DHT22;14378;51.796;5.808;2023-03-09T11:07:29;6.40;99.90
26803;DHT22;14378;51.796;5.808;2023-03-09T11:11:46;6.40;99.90
26803;DHT22;14378;51.796;5.808;2023-03-09T11:13:47;6.40;99.90
26803;DHT22;14378;51.796;5.808;2023-03-09T11:16:12;6.30;99.90
26803;DHT22;14378;51.796;5.808;2023-03-09T11:18:32;6.30;99.90
26803;DHT22;14378;51.796;5.808;2023-03-09T11:20:37;6.40;99.90
26803;DHT22;14378;51.796;5.808;2023-03-09T11:25:37;6.30;99.90
26803;DHT22;14378;51.796;5.808;2023-03-09T11:27:35;6.30;99.90
26803;DHT22;14378;51.796;5.808;2023-03-09T11:31:53;6.40;99.90
26803;DHT22;14378;51.796;5.808;2023-03-09T11:33:55;6.30;99.90
26803;DHT22;14378;51.796;5.808;2023-03-09T11:35:58;6.30;99.90
26803;DHT22;14378;51.796;5.808;2023-03-09T11:38:03;6.30;99.90
26803;DHT22;14378;51.796;5.808;2023-03-09T11:40:20;6.30;99.90
26803;DHT22;14378;51.796;5.808;2023-03-09T11:42:32;6.30;99.90
26803;DHT22;14378;51.796;5.808;2023-03-09T11:44:38;6.40;99.90
26803;DHT22;14378;51.796;5.808;2023-03-09T11:46:40;6.40;99.90
26803;DHT22;14378;51.796;5.808;2023-03-09T11:48:55;6.40;99.90
26803;DHT22;14378;51.796;5.808;2023-03-09T11:51:11;6.50;99.90
26803;DHT22;14378;51.796;5.808;2023-03-09T11:55:50;6.50;99.90
26803;DHT22;14378;51.796;5.808;2023-03-09T11:57:57;6.60;99.90
26803;DHT22;14378;51.796;5.808;2023-03-09T12:00:04;6.60;99.90
26803;DHT22;14378;51.796;5.808;2023-03-09T12:02:55;6.50;99.90
26803;DHT22;14378;51.796;5.808;2023-03-09T12:04:57;6.50;99.90
26803;DHT22;14378;51.796;5.808;2023-03-09T12:09:51;6.60;99.90
26803;DHT22;14378;51.796;5.808;2023-03-09T12:11:38;6.60;99.90
26803;DHT22;14378;51.796;5.808;2023-03-09T12:13:57;6.60;99.90
26803;DHT22;14378;51.796;5.808;2023-03-09T12:16:04;6.60;99.90
26803;DHT22;14378;51.796;5.808;2023-03-09T12:18:15;6.60;99.90
26803;DHT22;14378;51.796;5.808;2023-03-09T12:20:34;6.50;99.90
26803;DHT22;14378;51.796;5.808;2023-03-09T12:22:38;6.60;99.90
26803;DHT22;14378;51.796;5.808;2023-03-09T12:24:43;6.60;99.90
26803;DHT22;14378;51.796;5.808;2023-03-09T12:27:00;6.60;99.90
26803;DHT22;14378;51.796;5.808;2023-03-09T12:31:36;6.60;99.90
26803;DHT22;14378;51.796;5.808;2023-03-09T12:35:57;6.60;99.90
26803;DHT22;14378;51.796;5.808;2023-03-09T12:42:37;6.50;99.90
26803;DHT22;14378;51.796;5.808;2023-03-09T12:46:53;6.60;99.90
26803;DHT22;14378;51.796;5.808;2023-03-09T12:48:58;6.50;99.90
26803;DHT22;14378;51.796;5.808;2023-03-09T12:51:16;6.60;99.90
26803;DHT22;14378;51.796;5.808;2023-03-09T12:53:24;6.60;99.90
26803;DHT22;14378;51.796;5.808;2023-03-09T12:57:35;6.60;99.90
26803;DHT22;14378;51.796;5.808;2023-03-09T12:59:37;6.60;99.90
26803;DHT22;14378;51.796;5.808;2023-03-09T13:01:38;6.60;99.90
26803;DHT22;14378;51.796;5.808;2023-03-09T13:04:13;6.60;99.90
26803;DHT22;14378;51.796;5.808;2023-03-09T13:08:42;6.60;99.90
26803;DHT22;14378;51.796;5.808;2023-03-09T13:10:43;6.60;99.90
26803;DHT22;14378;51.796;5.808;2023-03-09T13:12:45;6.60;99.90
26803;DHT22;14378;51.796;5.808;2023-03-09T13:16:54;6.60;99.90
26803;DHT22;14378;51.796;5.808;2023-03-09T13:19:38;6.60;99.90
26803;DHT22;14378;51.796;5.808;2023-03-09T13:23:53;6.60;99.90
26803;DHT22;14378;51.796;5.808;2023-03-09T13:25:55;6.60;99.90
26803;DHT22;14378;51.796;5.808;2023-03-09T13:28:03;6.60;99.90
26803;DHT22;14378;51.796;5.808;2023-03-09T13:30:21;6.60;99.90
26803;DHT22;14378;51.796;5.808;2023-03-09T13:33:17;6.60;99.90
26803;DHT22;14378;51.796;5.808;2023-03-09T13:34:54;6.60;99.90
26803;DHT22;14378;51.796;5.808;2023-03-09T13:37:03;6.50;99.90
26803;DHT22;14378;51.796;5.808;2023-03-09T13:39:11;6.50;99.90
26803;DHT22;14378;51.796;5.808;2023-03-09T13:41:20;6.50;99.90
26803;DHT22;14378;51.796;5.808;2023-03-09T13:43:31;6.60;99.90
26803;DHT22;14378;51.796;5.808;2023-03-09T13:45:33;6.60;99.90
26803;DHT22;14378;51.796;5.808;2023-03-09T13:47:35;6.60;99.90
26803;DHT22;14378;51.796;5.808;2023-03-09T13:49:37;6.60;99.90
26803;DHT22;14378;51.796;5.808;2023-03-09T13:51:57;6.60;99.90
26803;DHT22;14378;51.796;5.808;2023-03-09T13:53:59;6.60;99.90
26803;DHT22;14378;51.796;5.808;2023-03-09T13:56:03;6.50;99.90
26803;DHT22;14378;51.796;5.808;2023-03-09T13:58:18;6.40;99.90
26803;DHT22;14378;51.796;5.808;2023-03-09T14:00:20;6.50;99.90
26803;DHT22;14378;51.796;5.808;2023-03-09T14:02:25;6.40;99.90
26803;DHT22;14378;51.796;5.808;2023-03-09T14:04:29;6.40;99.90
26803;DHT22;14378;51.796;5.808;2023-03-09T14:06:35;6.40;99.90
26803;DHT22;14378;51.796;5.808;2023-03-09T14:08:43;6.40;99.90
26803;DHT22;14378;51.796;5.808;2023-03-09T14:10:45;6.30;99.90
26803;DHT22;14378;51.796;5.808;2023-03-09T14:12:47;6.30;99.90
26803;DHT22;14378;51.796;5.808;2023-03-09T14:14:53;6.30;99.90
26803;DHT22;14378;51.796;5.808;2023-03-09T14:16:56;6.30;99.90
26803;DHT22;14378;51.796;5.808;2023-03-09T14:18:58;6.30;99.90
26803;DHT22;14378;51.796;5.808;2023-03-09T14:21:03;6.30;99.90
26803;DHT22;14378;51.796;5.808;2023-03-09T14:23:17;6.20;99.90
26803;DHT22;14378;51.796;5.808;2023-03-09T14:27:33;6.20;99.90